Thursday, March 22, 2018, 9:50 PM GMT
Back to Local

CYQM, Moncton, N. B.

Location: , , Canada Lat: 46.117
Local Time: 9:50 PM GMT (21:50 GMT) Lon: -64.683
Time Zone: GMT Elev: 232 ft

Show me the last for .
Show Decoded

2018-03-22 21:00 METAR CYQM 222100Z 01031G39KT 1/4SM R06/4000FT/U R29/5500FT/N -SN BLSN OVC006
                 M02/M03 A2953 RMK BLSN4SF4 VIS VRB 1/8-3/8 /S08/ SLP006 =
2018-03-22 20:36 METAR CYQM 222036Z 02028G38KT 1/4SM R06/3000V4000FT/U R29/4000V5500FT/U -SN BLSN
                 OVC005 M02/M03 A2953 RMK BLSN4SF4 SLP006 =
2018-03-22 20:24 METAR CYQM 222024Z 02026G38KT 1/4SM R06/1800V2600FT/N R29/3500FT/N SN BLSN
                 BKN003 VV006 M02/M03 A2954 RMK SF5SN3 SLP007 =
2018-03-22 20:00 METAR CYQM 222000Z 02031G41KT 1/4SM R29/2400FT/N SN BLSN VV004 M02/M03 A2954 RMK
                 SN8 VIS VRB 1/8 -3/8 /S06/ SLP010 =
2018-03-22 19:00 METAR CYQM 221900Z 02027G38KT 1/4SM R29/2200FT/N SN BLSN VV004 M02/M03 A2957 RMK
                 SN8 /S03/ SLP017 =
2018-03-22 18:00 METAR CYQM 221800Z 02034G42KT 1/4SM R29/1600FT/N SN BLSN VV004 M02/M03 A2955 RMK
                 SN8 /S06/ PRESFR SLP013 =
2018-03-22 17:23 METAR CYQM 221723Z 02029G36KT 1/4SM R06/1600FT/ R29/1400V2000FT/D SN BLSN VV004
                 M02/M03 A2961 RMK SN8 PRESFR SLP033 =
2018-03-22 17:00 METAR CYQM 221700Z 03025G37KT 3/8SM R06/2600FT/N R29/2600FT/N -SN BLSN VV005
                 M02/M03 A2964 RMK SN8 /S01/ SLP043 =
2018-03-22 16:46 METAR CYQM 221646Z 03026G35KT 3/8SM R06/P6000FT/D R29/3500VP6000FT/D -SN BLSN
                 VV005 M01/M03 A2965 RMK SN8 SLP047 =
2018-03-22 16:43 METAR CYQM 221643Z 03027G40KT 5/8SM R06/P6000FT/D R29/P6000FT/D -SN BLSN VV007
                 M01/M03 A2966 RMK SN8 SLP049 =
2018-03-22 16:32 METAR CYQM 221632Z 02031G39KT 1 1/2SM -SN DRSN BKN008 VV015 M01/M03 A2966 RMK
                 SF7SN1 SLP049 =
2018-03-22 16:05 METAR CYQM 221605Z 02024G39KT 8SM -SN DRSN BKN008 OVC022 M01/M03 A2966 RMK
                 SF7SC1 SLP049 =
2018-03-22 16:00 METAR CYQM 221600Z 03030G39KT 10SM -SHGS BKN009 OVC024 M01/M03 A2967 RMK SF7SC1
                 CVCTV CLD EMBD SLP052 =
2018-03-22 15:00 METAR CYQM 221500Z 03023G33KT 15SM BKN009 OVC024 M01/M03 A2967 RMK SF7SC1 PRESFR
                 SLP053 =
2018-03-22 14:00 METAR CYQM 221400Z 02022G29KT 15SM BKN009 OVC024 M01/M03 A2972 RMK SF7SC1 PRESFR
                 SLP069 =
2018-03-22 13:00 METAR CYQM 221300Z 04019G24KT 15SM BKN009 OVC030 M01/M03 A2978 RMK SF7SC1 SLP090
2018-03-22 12:00 METAR CYQM 221200Z 03017G25KT 15SM BKN008 OVC085 M02/M04 A2979 RMK SF7AC1 PRESFR
                 SLP094 =
2018-03-22 11:00 METAR CYQM 221100Z 04015G22KT 15SM OVC008 M02/M04 A2984 RMK SF8 PRESRR SLP110 =
2018-03-22 10:00 METAR CYQM 221000Z 04016G24KT 15SM OVC009 M03/M04 A2985 RMK SF8 SLP114 =
2018-03-22 09:00 METAR CYQM 220900Z 03015G23KT 15SM OVC010 M03/M05 A2987 RMK SF8 SLP120 =
2018-03-22 08:00 METAR CYQM 220800Z 03016KT 15SM BKN014 OVC090 M03/M06 A2991 RMK SC7AC1 PRESFR
                 SLP133 =
2018-03-22 07:00 METAR CYQM 220700Z 03016KT 15SM OVC016 M03/M06 A2992 RMK SC8 SLP137 =
2018-03-22 06:00 METAR CYQM 220600Z 04014KT 15SM OVC015 M03/M06 A2993 RMK SC8 SLP139 =
2018-03-22 05:00 METAR CYQM 220500Z 03015KT 15SM OVC014 M03/M06 A2993 RMK SC8 SLP139 =
2018-03-22 04:00 METAR CYQM 220400Z 03013G19KT 15SM BKN019 BKN170 M03/M06 A2994 RMK SC7AC1 AC TR
                 SLP143 =
2018-03-22 03:00 METAR CYQM 220300Z 03013G20KT 15SM BKN020 M03/M06 A2994 RMK SC7 SLP144 =
2018-03-22 02:00 METAR CYQM 220200Z 04013KT 15SM SCT018 BKN200 M03/M06 A2995 RMK SC4CI2 SLP146 =
2018-03-22 01:00 METAR CYQM 220100Z 03012KT 15SM FEW015 BKN220 M03/M06 A2994 RMK SC1CI5 SLP144 =
2018-03-22 00:00 METAR CYQM 220000Z 03013G19KT 15SM FEW035 BKN230 M03/M06 A2994 RMK SC1CI5 SC TR
                 SLP146 =
2018-03-21 23:00 METAR CYQM 212300Z 02014G20KT 15SM FEW032 BKN210 M02/M07 A2994 RMK SC1CI5 SLP146
2018-03-21 22:00 METAR CYQM 212200Z 02018G24KT 15SM FEW015 BKN210 M02/M06 A2993 RMK SC1CI5 SLP142

Support USWX by starting your Amazon purchase here.